sensor_id;sensor_type;location;lat;lon;timestamp;P1;durP1;ratioP1;P2;durP2;ratioP2
15706;SDS011;7953;54.302;10.128;2023-05-10T00:00:49;4.00;;;2.50;;
15706;SDS011;7953;54.302;10.128;2023-05-10T00:03:15;4.27;;;3.00;;
15706;SDS011;7953;54.302;10.128;2023-05-10T00:05:42;3.07;;;2.67;;
15706;SDS011;7953;54.302;10.128;2023-05-10T00:08:09;3.13;;;2.83;;
15706;SDS011;7953;54.302;10.128;2023-05-10T00:10:37;5.57;;;2.83;;
15706;SDS011;7953;54.302;10.128;2023-05-10T00:13:06;5.50;;;2.57;;
15706;SDS011;7953;54.302;10.128;2023-05-10T00:15:33;4.53;;;2.90;;
15706;SDS011;7953;54.302;10.128;2023-05-10T00:18:00;4.83;;;2.67;;
15706;SDS011;7953;54.302;10.128;2023-05-10T00:20:27;6.50;;;3.00;;
15706;SDS011;7953;54.302;10.128;2023-05-10T00:22:54;4.50;;;2.90;;
15706;SDS011;7953;54.302;10.128;2023-05-10T00:25:21;4.57;;;2.80;;
15706;SDS011;7953;54.302;10.128;2023-05-10T00:27:49;4.87;;;2.77;;
15706;SDS011;7953;54.302;10.128;2023-05-10T00:30:16;7.73;;;3.10;;
15706;SDS011;7953;54.302;10.128;2023-05-10T00:32:43;5.03;;;3.00;;
15706;SDS011;7953;54.302;10.128;2023-05-10T00:35:10;5.23;;;3.00;;
15706;SDS011;7953;54.302;10.128;2023-05-10T00:37:37;3.80;;;2.23;;
15706;SDS011;7953;54.302;10.128;2023-05-10T00:40:05;2.93;;;2.27;;
15706;SDS011;7953;54.302;10.128;2023-05-10T00:42:33;4.43;;;2.87;;
15706;SDS011;7953;54.302;10.128;2023-05-10T00:45:01;3.87;;;2.73;;
15706;SDS011;7953;54.302;10.128;2023-05-10T00:47:28;5.43;;;2.70;;
15706;SDS011;7953;54.302;10.128;2023-05-10T00:49:55;5.30;;;2.90;;
15706;SDS011;7953;54.302;10.128;2023-05-10T00:52:22;6.10;;;2.60;;
15706;SDS011;7953;54.302;10.128;2023-05-10T00:54:49;5.43;;;2.80;;
15706;SDS011;7953;54.302;10.128;2023-05-10T00:57:18;6.43;;;2.80;;
15706;SDS011;7953;54.302;10.128;2023-05-10T00:59:45;4.43;;;2.70;;
15706;SDS011;7953;54.302;10.128;2023-05-10T01:02:13;4.90;;;3.17;;
15706;SDS011;7953;54.302;10.128;2023-05-10T01:04:40;6.23;;;2.90;;
15706;SDS011;7953;54.302;10.128;2023-05-10T01:07:08;8.83;;;3.83;;
15706;SDS011;7953;54.302;10.128;2023-05-10T01:09:35;7.90;;;3.50;;
15706;SDS011;7953;54.302;10.128;2023-05-10T01:12:02;3.80;;;3.00;;
15706;SDS011;7953;54.302;10.128;2023-05-10T01:14:31;5.40;;;2.90;;
15706;SDS011;7953;54.302;10.128;2023-05-10T01:16:59;5.07;;;3.00;;
15706;SDS011;7953;54.302;10.128;2023-05-10T01:19:29;3.43;;;2.60;;
15706;SDS011;7953;54.302;10.128;2023-05-10T01:22:01;5.87;;;3.10;;
15706;SDS011;7953;54.302;10.128;2023-05-10T01:28:02;4.40;;;2.93;;
15706;SDS011;7953;54.302;10.128;2023-05-10T01:30:47;5.57;;;2.90;;
15706;SDS011;7953;54.302;10.128;2023-05-10T01:33:43;3.27;;;2.97;;
15706;SDS011;7953;54.302;10.128;2023-05-10T01:36:16;3.40;;;3.10;;
15706;SDS011;7953;54.302;10.128;2023-05-10T01:38:54;6.27;;;3.30;;
15706;SDS011;7953;54.302;10.128;2023-05-10T01:41:27;4.33;;;3.10;;
15706;SDS011;7953;54.302;10.128;2023-05-10T01:44:01;3.07;;;2.73;;
15706;SDS011;7953;54.302;10.128;2023-05-10T01:46:36;5.73;;;3.10;;
15706;SDS011;7953;54.302;10.128;2023-05-10T01:49:07;7.83;;;3.53;;
15706;SDS011;7953;54.302;10.128;2023-05-10T01:51:38;6.53;;;3.23;;
15706;SDS011;7953;54.302;10.128;2023-05-10T01:54:08;2.90;;;2.70;;
15706;SDS011;7953;54.302;10.128;2023-05-10T01:56:36;4.60;;;3.27;;
15706;SDS011;7953;54.302;10.128;2023-05-10T01:59:08;3.77;;;3.30;;
15706;SDS011;7953;54.302;10.128;2023-05-10T02:01:39;6.67;;;3.03;;
15706;SDS011;7953;54.302;10.128;2023-05-10T02:04:08;3.70;;;2.80;;
15706;SDS011;7953;54.302;10.128;2023-05-10T02:06:36;4.53;;;3.00;;
15706;SDS011;7953;54.302;10.128;2023-05-10T02:09:05;5.67;;;2.97;;
15706;SDS011;7953;54.302;10.128;2023-05-10T02:11:33;4.63;;;3.27;;
15706;SDS011;7953;54.302;10.128;2023-05-10T02:14:00;3.77;;;3.23;;
15706;SDS011;7953;54.302;10.128;2023-05-10T02:16:28;6.07;;;3.37;;
15706;SDS011;7953;54.302;10.128;2023-05-10T02:18:56;5.00;;;3.20;;
15706;SDS011;7953;54.302;10.128;2023-05-10T02:21:26;4.70;;;3.23;;
15706;SDS011;7953;54.302;10.128;2023-05-10T02:23:55;3.67;;;3.00;;
15706;SDS011;7953;54.302;10.128;2023-05-10T02:26:23;4.50;;;3.00;;
15706;SDS011;7953;54.302;10.128;2023-05-10T02:28:52;6.57;;;3.53;;
15706;SDS011;7953;54.302;10.128;2023-05-10T02:31:20;4.63;;;3.30;;
15706;SDS011;7953;54.302;10.128;2023-05-10T02:33:48;5.43;;;3.10;;
15706;SDS011;7953;54.302;10.128;2023-05-10T02:36:16;4.70;;;2.90;;
15706;SDS011;7953;54.302;10.128;2023-05-10T02:38:45;4.47;;;3.07;;
15706;SDS011;7953;54.302;10.128;2023-05-10T02:41:13;4.87;;;2.97;;
15706;SDS011;7953;54.302;10.128;2023-05-10T02:43:41;3.83;;;3.20;;
15706;SDS011;7953;54.302;10.128;2023-05-10T02:46:09;14.67;;;3.73;;
15706;SDS011;7953;54.302;10.128;2023-05-10T02:48:36;5.50;;;3.17;;
15706;SDS011;7953;54.302;10.128;2023-05-10T02:51:04;3.93;;;3.37;;
15706;SDS011;7953;54.302;10.128;2023-05-10T02:53:33;8.40;;;3.53;;
15706;SDS011;7953;54.302;10.128;2023-05-10T02:56:05;6.63;;;3.53;;
15706;SDS011;7953;54.302;10.128;2023-05-10T02:58:38;4.53;;;3.20;;
15706;SDS011;7953;54.302;10.128;2023-05-10T03:01:05;6.67;;;3.83;;
15706;SDS011;7953;54.302;10.128;2023-05-10T03:03:32;4.97;;;3.43;;
15706;SDS011;7953;54.302;10.128;2023-05-10T03:05:59;3.80;;;3.33;;
15706;SDS011;7953;54.302;10.128;2023-05-10T03:08:26;3.60;;;3.30;;
15706;SDS011;7953;54.302;10.128;2023-05-10T03:10:57;4.43;;;3.70;;
15706;SDS011;7953;54.302;10.128;2023-05-10T03:13:35;3.47;;;3.17;;
15706;SDS011;7953;54.302;10.128;2023-05-10T03:16:10;4.37;;;3.30;;
15706;SDS011;7953;54.302;10.128;2023-05-10T03:18:42;5.27;;;3.37;;
15706;SDS011;7953;54.302;10.128;2023-05-10T03:21:11;4.70;;;3.60;;
15706;SDS011;7953;54.302;10.128;2023-05-10T03:23:40;4.40;;;3.30;;
15706;SDS011;7953;54.302;10.128;2023-05-10T03:26:10;6.53;;;3.37;;
15706;SDS011;7953;54.302;10.128;2023-05-10T03:28:44;5.03;;;3.40;;
15706;SDS011;7953;54.302;10.128;2023-05-10T03:31:13;6.27;;;3.50;;
15706;SDS011;7953;54.302;10.128;2023-05-10T03:33:45;3.90;;;3.33;;
15706;SDS011;7953;54.302;10.128;2023-05-10T03:36:13;4.03;;;2.90;;
15706;SDS011;7953;54.302;10.128;2023-05-10T03:38:40;6.27;;;3.40;;
15706;SDS011;7953;54.302;10.128;2023-05-10T03:41:07;4.97;;;3.70;;
15706;SDS011;7953;54.302;10.128;2023-05-10T03:43:34;3.97;;;3.50;;
15706;SDS011;7953;54.302;10.128;2023-05-10T03:46:03;5.53;;;3.40;;
15706;SDS011;7953;54.302;10.128;2023-05-10T03:48:30;4.93;;;3.80;;
15706;SDS011;7953;54.302;10.128;2023-05-10T03:50:58;7.53;;;4.17;;
15706;SDS011;7953;54.302;10.128;2023-05-10T03:53:25;4.80;;;4.30;;
15706;SDS011;7953;54.302;10.128;2023-05-10T03:55:52;3.90;;;3.50;;
15706;SDS011;7953;54.302;10.128;2023-05-10T03:58:19;5.97;;;3.63;;
15706;SDS011;7953;54.302;10.128;2023-05-10T04:00:46;5.00;;;3.97;;
15706;SDS011;7953;54.302;10.128;2023-05-10T04:03:15;4.20;;;3.80;;
15706;SDS011;7953;54.302;10.128;2023-05-10T04:05:42;5.43;;;3.83;;
15706;SDS011;7953;54.302;10.128;2023-05-10T04:08:09;4.17;;;3.37;;
15706;SDS011;7953;54.302;10.128;2023-05-10T04:10:35;4.57;;;3.50;;
15706;SDS011;7953;54.302;10.128;2023-05-10T04:13:02;4.20;;;3.67;;
15706;SDS011;7953;54.302;10.128;2023-05-10T04:15:29;4.67;;;3.10;;
15706;SDS011;7953;54.302;10.128;2023-05-10T04:17:56;4.33;;;3.63;;
15706;SDS011;7953;54.302;10.128;2023-05-10T04:20:24;3.97;;;3.60;;
15706;SDS011;7953;54.302;10.128;2023-05-10T04:22:51;7.73;;;3.80;;
15706;SDS011;7953;54.302;10.128;2023-05-10T04:25:18;4.00;;;3.50;;
15706;SDS011;7953;54.302;10.128;2023-05-10T04:27:45;4.17;;;3.73;;
15706;SDS011;7953;54.302;10.128;2023-05-10T04:30:12;5.43;;;4.30;;
15706;SDS011;7953;54.302;10.128;2023-05-10T04:32:39;4.23;;;3.83;;
15706;SDS011;7953;54.302;10.128;2023-05-10T04:35:06;7.20;;;3.97;;
15706;SDS011;7953;54.302;10.128;2023-05-10T04:37:36;6.13;;;3.70;;
15706;SDS011;7953;54.302;10.128;2023-05-10T04:40:03;6.50;;;3.90;;
15706;SDS011;7953;54.302;10.128;2023-05-10T04:42:31;4.73;;;4.03;;
15706;SDS011;7953;54.302;10.128;2023-05-10T04:44:58;5.90;;;3.80;;
15706;SDS011;7953;54.302;10.128;2023-05-10T04:47:25;4.87;;;4.13;;
15706;SDS011;7953;54.302;10.128;2023-05-10T04:49:51;7.90;;;4.30;;
15706;SDS011;7953;54.302;10.128;2023-05-10T04:52:18;7.03;;;4.40;;
15706;SDS011;7953;54.302;10.128;2023-05-10T04:54:47;4.13;;;3.73;;
15706;SDS011;7953;54.302;10.128;2023-05-10T04:57:14;4.67;;;4.23;;
15706;SDS011;7953;54.302;10.128;2023-05-10T04:59:41;4.87;;;3.90;;
15706;SDS011;7953;54.302;10.128;2023-05-10T05:02:07;7.50;;;4.67;;
15706;SDS011;7953;54.302;10.128;2023-05-10T05:04:34;5.57;;;4.40;;
15706;SDS011;7953;54.302;10.128;2023-05-10T05:07:01;4.73;;;4.20;;
15706;SDS011;7953;54.302;10.128;2023-05-10T05:09:28;5.13;;;4.03;;
15706;SDS011;7953;54.302;10.128;2023-05-10T05:11:58;4.33;;;3.90;;
15706;SDS011;7953;54.302;10.128;2023-05-10T05:14:25;7.47;;;4.20;;
15706;SDS011;7953;54.302;10.128;2023-05-10T05:16:52;7.43;;;4.30;;
15706;SDS011;7953;54.302;10.128;2023-05-10T05:19:19;5.07;;;4.10;;
15706;SDS011;7953;54.302;10.128;2023-05-10T05:21:46;5.87;;;4.20;;
15706;SDS011;7953;54.302;10.128;2023-05-10T05:24:13;6.73;;;4.37;;
15706;SDS011;7953;54.302;10.128;2023-05-10T05:26:40;5.73;;;3.97;;
15706;SDS011;7953;54.302;10.128;2023-05-10T05:29:08;7.27;;;4.27;;
15706;SDS011;7953;54.302;10.128;2023-05-10T05:31:35;6.13;;;4.20;;
15706;SDS011;7953;54.302;10.128;2023-05-10T05:34:02;6.83;;;4.17;;
15706;SDS011;7953;54.302;10.128;2023-05-10T05:36:29;4.90;;;3.93;;
15706;SDS011;7953;54.302;10.128;2023-05-10T05:38:56;4.17;;;3.73;;
15706;SDS011;7953;54.302;10.128;2023-05-10T05:41:23;6.23;;;3.63;;
15706;SDS011;7953;54.302;10.128;2023-05-10T05:43:51;5.90;;;3.80;;
15706;SDS011;7953;54.302;10.128;2023-05-10T05:46:19;7.27;;;3.73;;
15706;SDS011;7953;54.302;10.128;2023-05-10T05:48:46;4.60;;;4.10;;
15706;SDS011;7953;54.302;10.128;2023-05-10T05:51:12;3.90;;;3.50;;
15706;SDS011;7953;54.302;10.128;2023-05-10T05:53:39;5.33;;;4.60;;
15706;SDS011;7953;54.302;10.128;2023-05-10T05:56:06;7.70;;;4.00;;
15706;SDS011;7953;54.302;10.128;2023-05-10T05:58:34;10.10;;;4.37;;
15706;SDS011;7953;54.302;10.128;2023-05-10T06:01:01;5.73;;;3.90;;
15706;SDS011;7953;54.302;10.128;2023-05-10T06:03:29;4.93;;;4.40;;
15706;SDS011;7953;54.302;10.128;2023-05-10T06:05:57;7.33;;;4.97;;
15706;SDS011;7953;54.302;10.128;2023-05-10T06:08:24;5.33;;;4.00;;
15706;SDS011;7953;54.302;10.128;2023-05-10T06:10:51;7.70;;;3.93;;
15706;SDS011;7953;54.302;10.128;2023-05-10T06:13:18;5.13;;;4.30;;
15706;SDS011;7953;54.302;10.128;2023-05-10T06:15:45;5.47;;;4.03;;
15706;SDS011;7953;54.302;10.128;2023-05-10T06:18:12;6.03;;;4.00;;
15706;SDS011;7953;54.302;10.128;2023-05-10T06:20:40;4.70;;;4.17;;
15706;SDS011;7953;54.302;10.128;2023-05-10T06:23:07;8.07;;;4.33;;
15706;SDS011;7953;54.302;10.128;2023-05-10T06:25:34;7.87;;;4.03;;
15706;SDS011;7953;54.302;10.128;2023-05-10T06:28:01;6.87;;;3.90;;
15706;SDS011;7953;54.302;10.128;2023-05-10T06:30:28;4.73;;;4.07;;
15706;SDS011;7953;54.302;10.128;2023-05-10T06:32:55;4.57;;;4.13;;
15706;SDS011;7953;54.302;10.128;2023-05-10T06:35:22;5.50;;;4.00;;
15706;SDS011;7953;54.302;10.128;2023-05-10T06:37:50;9.03;;;4.40;;
15706;SDS011;7953;54.302;10.128;2023-05-10T06:40:17;7.07;;;4.63;;
15706;SDS011;7953;54.302;10.128;2023-05-10T06:42:45;5.67;;;4.73;;
15706;SDS011;7953;54.302;10.128;2023-05-10T06:45:12;6.53;;;4.33;;
15706;SDS011;7953;54.302;10.128;2023-05-10T06:47:39;6.07;;;3.97;;
15706;SDS011;7953;54.302;10.128;2023-05-10T06:50:06;4.50;;;4.10;;
15706;SDS011;7953;54.302;10.128;2023-05-10T06:52:34;4.77;;;4.27;;
15706;SDS011;7953;54.302;10.128;2023-05-10T06:55:02;6.33;;;3.87;;
15706;SDS011;7953;54.302;10.128;2023-05-10T06:57:30;5.10;;;4.37;;
15706;SDS011;7953;54.302;10.128;2023-05-10T06:59:57;5.00;;;4.17;;
15706;SDS011;7953;54.302;10.128;2023-05-10T07:02:24;6.83;;;4.50;;
15706;SDS011;7953;54.302;10.128;2023-05-10T07:04:51;4.97;;;4.47;;
15706;SDS011;7953;54.302;10.128;2023-05-10T07:07:18;6.20;;;4.17;;
15706;SDS011;7953;54.302;10.128;2023-05-10T07:09:45;6.10;;;4.17;;
15706;SDS011;7953;54.302;10.128;2023-05-10T07:12:13;5.37;;;4.33;;
15706;SDS011;7953;54.302;10.128;2023-05-10T07:14:40;4.83;;;4.33;;
15706;SDS011;7953;54.302;10.128;2023-05-10T07:17:07;4.93;;;4.30;;
15706;SDS011;7953;54.302;10.128;2023-05-10T07:19:34;5.40;;;4.00;;
15706;SDS011;7953;54.302;10.128;2023-05-10T07:22:00;5.50;;;4.70;;
15706;SDS011;7953;54.302;10.128;2023-05-10T07:24:27;4.70;;;4.30;;
15706;SDS011;7953;54.302;10.128;2023-05-10T07:26:54;5.53;;;4.90;;
15706;SDS011;7953;54.302;10.128;2023-05-10T07:29:23;7.90;;;4.57;;
15706;SDS011;7953;54.302;10.128;2023-05-10T07:31:50;4.90;;;4.33;;
15706;SDS011;7953;54.302;10.128;2023-05-10T07:34:16;4.87;;;4.37;;
15706;SDS011;7953;54.302;10.128;2023-05-10T07:36:43;5.30;;;4.37;;
15706;SDS011;7953;54.302;10.128;2023-05-10T07:39:10;7.70;;;3.90;;
15706;SDS011;7953;54.302;10.128;2023-05-10T07:41:37;5.97;;;4.50;;
15706;SDS011;7953;54.302;10.128;2023-05-10T07:44:04;8.60;;;4.30;;
15706;SDS011;7953;54.302;10.128;2023-05-10T07:46:33;5.40;;;4.10;;
15706;SDS011;7953;54.302;10.128;2023-05-10T07:49:00;4.97;;;3.77;;
15706;SDS011;7953;54.302;10.128;2023-05-10T07:51:27;8.67;;;4.40;;
15706;SDS011;7953;54.302;10.128;2023-05-10T07:53:54;5.03;;;4.50;;
15706;SDS011;7953;54.302;10.128;2023-05-10T07:56:23;4.47;;;4.07;;
15706;SDS011;7953;54.302;10.128;2023-05-10T07:58:52;3.97;;;3.60;;
15706;SDS011;7953;54.302;10.128;2023-05-10T08:01:19;5.03;;;3.80;;
15706;SDS011;7953;54.302;10.128;2023-05-10T08:03:47;4.47;;;4.07;;
15706;SDS011;7953;54.302;10.128;2023-05-10T08:06:16;4.93;;;3.47;;
15706;SDS011;7953;54.302;10.128;2023-05-10T08:08:44;6.83;;;4.23;;
15706;SDS011;7953;54.302;10.128;2023-05-10T08:11:14;3.90;;;3.60;;
15706;SDS011;7953;54.302;10.128;2023-05-10T08:13:41;5.97;;;3.93;;
15706;SDS011;7953;54.302;10.128;2023-05-10T08:16:08;6.33;;;4.10;;
15706;SDS011;7953;54.302;10.128;2023-05-10T08:18:35;4.23;;;3.83;;
15706;SDS011;7953;54.302;10.128;2023-05-10T08:21:03;4.70;;;4.30;;
15706;SDS011;7953;54.302;10.128;2023-05-10T08:23:30;5.87;;;4.13;;
15706;SDS011;7953;54.302;10.128;2023-05-10T08:25:57;6.63;;;4.50;;
15706;SDS011;7953;54.302;10.128;2023-05-10T08:28:24;4.67;;;4.23;;
15706;SDS011;7953;54.302;10.128;2023-05-10T08:30:51;5.37;;;3.80;;
15706;SDS011;7953;54.302;10.128;2023-05-10T08:33:18;5.10;;;3.90;;
15706;SDS011;7953;54.302;10.128;2023-05-10T08:35:45;4.80;;;4.40;;
15706;SDS011;7953;54.302;10.128;2023-05-10T08:38:13;5.47;;;3.77;;
15706;SDS011;7953;54.302;10.128;2023-05-10T08:40:41;4.73;;;3.97;;
15706;SDS011;7953;54.302;10.128;2023-05-10T08:43:09;4.60;;;4.00;;
15706;SDS011;7953;54.302;10.128;2023-05-10T08:45:37;5.43;;;4.17;;
15706;SDS011;7953;54.302;10.128;2023-05-10T08:48:05;4.90;;;4.00;;
15706;SDS011;7953;54.302;10.128;2023-05-10T08:50:33;7.70;;;4.33;;
15706;SDS011;7953;54.302;10.128;2023-05-10T08:53:03;5.30;;;4.33;;
15706;SDS011;7953;54.302;10.128;2023-05-10T08:55:33;6.33;;;4.27;;
15706;SDS011;7953;54.302;10.128;2023-05-10T08:58:01;6.33;;;4.27;;
15706;SDS011;7953;54.302;10.128;2023-05-10T09:00:29;5.67;;;4.00;;
15706;SDS011;7953;54.302;10.128;2023-05-10T09:02:56;5.47;;;4.97;;
15706;SDS011;7953;54.302;10.128;2023-05-10T09:05:24;5.77;;;4.30;;
15706;SDS011;7953;54.302;10.128;2023-05-10T09:07:51;8.43;;;4.50;;
15706;SDS011;7953;54.302;10.128;2023-05-10T09:10:18;4.33;;;3.93;;
15706;SDS011;7953;54.302;10.128;2023-05-10T09:12:48;7.00;;;3.93;;
15706;SDS011;7953;54.302;10.128;2023-05-10T09:15:15;5.07;;;4.10;;
15706;SDS011;7953;54.302;10.128;2023-05-10T09:17:44;6.00;;;4.70;;
15706;SDS011;7953;54.302;10.128;2023-05-10T09:20:11;5.87;;;4.70;;
15706;SDS011;7953;54.302;10.128;2023-05-10T09:22:38;5.27;;;4.23;;
15706;SDS011;7953;54.302;10.128;2023-05-10T09:25:06;5.27;;;4.10;;
15706;SDS011;7953;54.302;10.128;2023-05-10T09:27:34;4.70;;;4.27;;
15706;SDS011;7953;54.302;10.128;2023-05-10T09:30:03;3.90;;;3.60;;
15706;SDS011;7953;54.302;10.128;2023-05-10T09:32:37;4.40;;;4.00;;
15706;SDS011;7953;54.302;10.128;2023-05-10T09:35:06;4.87;;;4.40;;
15706;SDS011;7953;54.302;10.128;2023-05-10T09:37:34;6.90;;;4.60;;
15706;SDS011;7953;54.302;10.128;2023-05-10T09:40:01;4.47;;;4.07;;
15706;SDS011;7953;54.302;10.128;2023-05-10T09:42:32;5.13;;;4.10;;
15706;SDS011;7953;54.302;10.128;2023-05-10T09:45:00;5.40;;;4.30;;
15706;SDS011;7953;54.302;10.128;2023-05-10T09:47:32;4.67;;;4.27;;
15706;SDS011;7953;54.302;10.128;2023-05-10T09:49:59;4.83;;;4.40;;
15706;SDS011;7953;54.302;10.128;2023-05-10T09:52:29;4.70;;;4.30;;
15706;SDS011;7953;54.302;10.128;2023-05-10T09:54:56;4.90;;;4.40;;
15706;SDS011;7953;54.302;10.128;2023-05-10T09:57:23;6.73;;;3.80;;
15706;SDS011;7953;54.302;10.128;2023-05-10T09:59:51;4.30;;;3.90;;
15706;SDS011;7953;54.302;10.128;2023-05-10T10:02:20;4.73;;;3.93;;
15706;SDS011;7953;54.302;10.128;2023-05-10T10:04:54;5.13;;;3.70;;
15706;SDS011;7953;54.302;10.128;2023-05-10T10:07:22;5.90;;;4.20;;
15706;SDS011;7953;54.302;10.128;2023-05-10T10:09:50;6.57;;;4.80;;
15706;SDS011;7953;54.302;10.128;2023-05-10T10:12:17;6.03;;;4.13;;
15706;SDS011;7953;54.302;10.128;2023-05-10T10:14:45;6.50;;;4.40;;
15706;SDS011;7953;54.302;10.128;2023-05-10T10:17:14;7.47;;;4.67;;
15706;SDS011;7953;54.302;10.128;2023-05-10T10:19:43;5.47;;;4.50;;
15706;SDS011;7953;54.302;10.128;2023-05-10T10:22:11;5.37;;;4.87;;
15706;SDS011;7953;54.302;10.128;2023-05-10T10:24:38;4.93;;;4.53;;
15706;SDS011;7953;54.302;10.128;2023-05-10T10:27:12;5.40;;;4.73;;
15706;SDS011;7953;54.302;10.128;2023-05-10T10:30:00;5.97;;;4.23;;
15706;SDS011;7953;54.302;10.128;2023-05-10T10:32:35;5.10;;;4.40;;
15706;SDS011;7953;54.302;10.128;2023-05-10T10:35:14;7.40;;;4.33;;
15706;SDS011;7953;54.302;10.128;2023-05-10T10:37:45;5.00;;;4.50;;
15706;SDS011;7953;54.302;10.128;2023-05-10T10:40:22;8.50;;;4.43;;
15706;SDS011;7953;54.302;10.128;2023-05-10T10:42:50;6.37;;;4.73;;
15706;SDS011;7953;54.302;10.128;2023-05-10T10:45:19;5.17;;;4.67;;
15706;SDS011;7953;54.302;10.128;2023-05-10T10:47:46;4.83;;;4.30;;
15706;SDS011;7953;54.302;10.128;2023-05-10T10:50:16;5.20;;;4.47;;
15706;SDS011;7953;54.302;10.128;2023-05-10T10:52:43;4.13;;;3.67;;
15706;SDS011;7953;54.302;10.128;2023-05-10T10:55:11;5.30;;;4.80;;
15706;SDS011;7953;54.302;10.128;2023-05-10T10:57:43;5.43;;;4.57;;
15706;SDS011;7953;54.302;10.128;2023-05-10T11:00:18;5.73;;;4.80;;
15706;SDS011;7953;54.302;10.128;2023-05-10T11:02:47;4.47;;;4.07;;
15706;SDS011;7953;54.302;10.128;2023-05-10T11:05:34;4.43;;;3.97;;
15706;SDS011;7953;54.302;10.128;2023-05-10T11:11:05;6.00;;;4.57;;
15706;SDS011;7953;54.302;10.128;2023-05-10T11:13:34;5.73;;;4.63;;
15706;SDS011;7953;54.302;10.128;2023-05-10T11:16:14;4.97;;;4.30;;
15706;SDS011;7953;54.302;10.128;2023-05-10T11:18:58;7.90;;;5.07;;
15706;SDS011;7953;54.302;10.128;2023-05-10T11:21:29;4.43;;;4.03;;
15706;SDS011;7953;54.302;10.128;2023-05-10T11:23:56;6.70;;;4.90;;
15706;SDS011;7953;54.302;10.128;2023-05-10T11:26:24;4.87;;;4.37;;
15706;SDS011;7953;54.302;10.128;2023-05-10T11:28:53;6.50;;;4.77;;
15706;SDS011;7953;54.302;10.128;2023-05-10T11:31:24;6.93;;;4.90;;
15706;SDS011;7953;54.302;10.128;2023-05-10T11:33:52;8.83;;;4.17;;
15706;SDS011;7953;54.302;10.128;2023-05-10T11:36:20;4.70;;;4.20;;
15706;SDS011;7953;54.302;10.128;2023-05-10T11:38:49;10.37;;;4.60;;
15706;SDS011;7953;54.302;10.128;2023-05-10T11:41:16;6.43;;;4.97;;
15706;SDS011;7953;54.302;10.128;2023-05-10T11:43:47;6.27;;;4.33;;
15706;SDS011;7953;54.302;10.128;2023-05-10T11:46:16;5.93;;;4.77;;
15706;SDS011;7953;54.302;10.128;2023-05-10T11:48:45;4.50;;;4.10;;
15706;SDS011;7953;54.302;10.128;2023-05-10T11:51:15;5.07;;;4.43;;
15706;SDS011;7953;54.302;10.128;2023-05-10T11:53:42;7.23;;;4.80;;
15706;SDS011;7953;54.302;10.128;2023-05-10T11:56:10;5.07;;;4.57;;
15706;SDS011;7953;54.302;10.128;2023-05-10T11:58:38;5.10;;;4.60;;
15706;SDS011;7953;54.302;10.128;2023-05-10T12:01:06;5.80;;;4.70;;
15706;SDS011;7953;54.302;10.128;2023-05-10T12:03:34;5.37;;;4.23;;
15706;SDS011;7953;54.302;10.128;2023-05-10T12:06:01;7.47;;;4.50;;
15706;SDS011;7953;54.302;10.128;2023-05-10T12:08:29;5.53;;;4.47;;
15706;SDS011;7953;54.302;10.128;2023-05-10T12:11:03;8.07;;;5.13;;
15706;SDS011;7953;54.302;10.128;2023-05-10T12:13:36;5.60;;;5.10;;
15706;SDS011;7953;54.302;10.128;2023-05-10T12:16:14;9.07;;;5.00;;
15706;SDS011;7953;54.302;10.128;2023-05-10T12:18:42;8.13;;;4.60;;
15706;SDS011;7953;54.302;10.128;2023-05-10T12:21:09;7.50;;;5.57;;
15706;SDS011;7953;54.302;10.128;2023-05-10T12:23:37;7.30;;;5.43;;
15706;SDS011;7953;54.302;10.128;2023-05-10T12:26:05;8.47;;;5.20;;
15706;SDS011;7953;54.302;10.128;2023-05-10T12:28:33;7.07;;;6.13;;
15706;SDS011;7953;54.302;10.128;2023-05-10T12:31:01;8.37;;;6.10;;
15706;SDS011;7953;54.302;10.128;2023-05-10T12:33:34;9.33;;;6.87;;
15706;SDS011;7953;54.302;10.128;2023-05-10T12:36:04;6.97;;;6.27;;
15706;SDS011;7953;54.302;10.128;2023-05-10T12:38:32;7.57;;;6.87;;
15706;SDS011;7953;54.302;10.128;2023-05-10T12:41:01;9.17;;;8.13;;
15706;SDS011;7953;54.302;10.128;2023-05-10T12:43:29;8.83;;;7.93;;
15706;SDS011;7953;54.302;10.128;2023-05-10T12:45:58;11.07;;;9.20;;
15706;SDS011;7953;54.302;10.128;2023-05-10T12:48:30;10.60;;;9.03;;
15706;SDS011;7953;54.302;10.128;2023-05-10T12:50:58;10.27;;;9.27;;
15706;SDS011;7953;54.302;10.128;2023-05-10T12:53:25;11.40;;;8.87;;
15706;SDS011;7953;54.302;10.128;2023-05-10T12:55:52;12.97;;;10.30;;
15706;SDS011;7953;54.302;10.128;2023-05-10T12:58:19;11.27;;;10.17;;
15706;SDS011;7953;54.302;10.128;2023-05-10T13:00:46;10.50;;;9.40;;
15706;SDS011;7953;54.302;10.128;2023-05-10T13:03:14;11.30;;;9.70;;
15706;SDS011;7953;54.302;10.128;2023-05-10T13:05:41;11.83;;;10.63;;
15706;SDS011;7953;54.302;10.128;2023-05-10T13:08:08;11.83;;;10.57;;
15706;SDS011;7953;54.302;10.128;2023-05-10T13:10:35;13.17;;;9.30;;
15706;SDS011;7953;54.302;10.128;2023-05-10T13:13:02;11.10;;;9.93;;
15706;SDS011;7953;54.302;10.128;2023-05-10T13:15:29;12.30;;;11.07;;
15706;SDS011;7953;54.302;10.128;2023-05-10T13:17:55;11.90;;;10.80;;
15706;SDS011;7953;54.302;10.128;2023-05-10T13:20:24;12.63;;;9.90;;
15706;SDS011;7953;54.302;10.128;2023-05-10T13:22:51;12.50;;;11.13;;
15706;SDS011;7953;54.302;10.128;2023-05-10T13:25:18;10.97;;;9.87;;
15706;SDS011;7953;54.302;10.128;2023-05-10T13:27:45;12.30;;;11.20;;
15706;SDS011;7953;54.302;10.128;2023-05-10T13:30:12;12.10;;;10.90;;
15706;SDS011;7953;54.302;10.128;2023-05-10T13:32:39;11.30;;;10.20;;
15706;SDS011;7953;54.302;10.128;2023-05-10T13:35:07;11.73;;;10.53;;
15706;SDS011;7953;54.302;10.128;2023-05-10T13:37:36;13.37;;;10.70;;
15706;SDS011;7953;54.302;10.128;2023-05-10T13:40:03;12.63;;;11.33;;
15706;SDS011;7953;54.302;10.128;2023-05-10T13:42:31;11.03;;;10.03;;
15706;SDS011;7953;54.302;10.128;2023-05-10T13:44:58;11.53;;;10.33;;
15706;SDS011;7953;54.302;10.128;2023-05-10T13:47:25;10.50;;;9.60;;
15706;SDS011;7953;54.302;10.128;2023-05-10T13:49:52;11.13;;;10.13;;
15706;SDS011;7953;54.302;10.128;2023-05-10T13:52:19;10.83;;;9.83;;
15706;SDS011;7953;54.302;10.128;2023-05-10T13:54:48;11.00;;;9.83;;
15706;SDS011;7953;54.302;10.128;2023-05-10T13:57:17;12.13;;;10.60;;
15706;SDS011;7953;54.302;10.128;2023-05-10T13:59:44;12.10;;;10.90;;
15706;SDS011;7953;54.302;10.128;2023-05-10T14:02:11;13.57;;;10.20;;
15706;SDS011;7953;54.302;10.128;2023-05-10T14:04:38;11.67;;;10.47;;
15706;SDS011;7953;54.302;10.128;2023-05-10T14:07:05;11.67;;;10.60;;
15706;SDS011;7953;54.302;10.128;2023-05-10T14:09:31;11.53;;;10.53;;
15706;SDS011;7953;54.302;10.128;2023-05-10T14:12:00;12.60;;;11.40;;
15706;SDS011;7953;54.302;10.128;2023-05-10T14:14:27;14.57;;;11.53;;
15706;SDS011;7953;54.302;10.128;2023-05-10T14:16:54;12.37;;;10.77;;
15706;SDS011;7953;54.302;10.128;2023-05-10T14:19:21;12.13;;;10.93;;
15706;SDS011;7953;54.302;10.128;2023-05-10T14:21:48;13.37;;;11.30;;
15706;SDS011;7953;54.302;10.128;2023-05-10T14:24:14;12.30;;;11.20;;
15706;SDS011;7953;54.302;10.128;2023-05-10T14:26:41;12.13;;;10.93;;
15706;SDS011;7953;54.302;10.128;2023-05-10T14:29:10;12.83;;;11.23;;
15706;SDS011;7953;54.302;10.128;2023-05-10T14:31:37;11.93;;;10.70;;
15706;SDS011;7953;54.302;10.128;2023-05-10T14:34:03;12.57;;;11.33;;
15706;SDS011;7953;54.302;10.128;2023-05-10T14:36:30;11.63;;;10.23;;
15706;SDS011;7953;54.302;10.128;2023-05-10T14:38:57;12.27;;;10.63;;
15706;SDS011;7953;54.302;10.128;2023-05-10T14:41:24;11.90;;;10.80;;
15706;SDS011;7953;54.302;10.128;2023-05-10T14:43:51;12.07;;;10.73;;
15706;SDS011;7953;54.302;10.128;2023-05-10T14:46:19;11.83;;;10.33;;
15706;SDS011;7953;54.302;10.128;2023-05-10T14:48:46;11.77;;;10.00;;
15706;SDS011;7953;54.302;10.128;2023-05-10T14:51:13;11.30;;;10.20;;
15706;SDS011;7953;54.302;10.128;2023-05-10T14:53:40;9.83;;;8.93;;
15706;SDS011;7953;54.302;10.128;2023-05-10T14:56:07;9.60;;;8.70;;